<?xml version="1.0" encoding="UTF-8" standalone="no" ?>
<gpx xmlns="http://www.topografix.com/GPX/1/1" xmlns:xsi="http://www.w3.org/2001/XMLSchema-instance" xsi:schemaLocation="http://www.topografix.com/GPX/1/1 http://www.topografix.com/GPX/1/1/gpx.xsd" version="1.1" creator="VisuGPX - https://www.visugpx.com">
  <metadata>
    <name>De Fourcès à Saint-Quitterie</name>
  </metadata>
  <wpt lat="43.99276" lon="0.23001">
    <ele>74.8</ele>
    <name><![CDATA[Mairie de Fourcès]]></name>
  </wpt>
  <wpt lat="43.99239" lon="0.23189">
    <ele>78.4</ele>
    <name><![CDATA[D29]]></name>
    <type><![CDATA[ à droite]]></type>
  </wpt>
  <wpt lat="43.98163" lon="0.24266">
    <ele>162.9</ele>
    <name><![CDATA[Chemin à gauche vers Lapisse]]></name>
  </wpt>
  <wpt lat="43.97672" lon="0.25232">
    <ele>150.9</ele>
    <name><![CDATA[Chemin herbeux à gauche en quittant le PR]]></name>
  </wpt>
  <wpt lat="43.97846" lon="0.26525">
    <ele>155</ele>
    <name><![CDATA[Route à gauche vers Boulin]]></name>
  </wpt>
  <wpt lat="43.98495" lon="0.26412">
    <ele>143.4</ele>
    <name><![CDATA[Chemin herbeux à gauche  (chêne-liège à droite)]]></name>
  </wpt>
  <wpt lat="43.98925" lon="0.24846">
    <ele>116.8</ele>
    <name><![CDATA[Route à droite vers Rombceuf ]]></name>
  </wpt>
  <wpt lat="43.99972" lon="0.24267">
    <ele>120.8</ele>
    <name><![CDATA[À Bajolle]]></name>
    <type><![CDATA[ route à gauche]]></type>
  </wpt>
  <wpt lat="43.99277" lon="0.23001">
    <ele>74.8</ele>
    <name><![CDATA[Mairie de Fourcès]]></name>
  </wpt>
  <trk>
    <name><![CDATA[De Fourcès à Saint-Quitterie]]></name>
    <trkseg>
      <trkpt lat="43.99276" lon="0.23001">
        <ele>75</ele>
        <time>2020-09-28T20:13:03+02:00</time>
      </trkpt>
      <trkpt lat="43.99269" lon="0.23027">
        <ele>75</ele>
        <time>2020-09-28T20:13:08+02:00</time>
      </trkpt>
      <trkpt lat="43.9926" lon="0.23041">
        <ele>75</ele>
        <time>2020-09-28T20:13:13+02:00</time>
      </trkpt>
      <trkpt lat="43.99249" lon="0.23047">
        <ele>75</ele>
        <time>2020-09-28T20:13:18+02:00</time>
      </trkpt>
      <trkpt lat="43.99242" lon="0.2311">
        <ele>76</ele>
        <time>2020-09-28T20:13:23+02:00</time>
      </trkpt>
      <trkpt lat="43.99239" lon="0.23189">
        <ele>78</ele>
        <time>2020-09-28T20:13:28+02:00</time>
      </trkpt>
      <trkpt lat="43.99114" lon="0.23225">
        <ele>80</ele>
        <time>2020-09-28T20:13:33+02:00</time>
      </trkpt>
      <trkpt lat="43.99084" lon="0.23226">
        <ele>80</ele>
        <time>2020-09-28T20:13:38+02:00</time>
      </trkpt>
      <trkpt lat="43.99013" lon="0.23206">
        <ele>78</ele>
        <time>2020-09-28T20:13:43+02:00</time>
      </trkpt>
      <trkpt lat="43.98945" lon="0.23186">
        <ele>75</ele>
        <time>2020-09-28T20:13:48+02:00</time>
      </trkpt>
      <trkpt lat="43.98931" lon="0.23184">
        <ele>78</ele>
        <time>2020-09-28T20:13:53+02:00</time>
      </trkpt>
      <trkpt lat="43.98926" lon="0.23194">
        <ele>79</ele>
        <time>2020-09-28T20:13:58+02:00</time>
      </trkpt>
      <trkpt lat="43.9892" lon="0.23204">
        <ele>80</ele>
        <time>2020-09-28T20:14:03+02:00</time>
      </trkpt>
      <trkpt lat="43.98899" lon="0.23289">
        <ele>87</ele>
        <time>2020-09-28T20:14:08+02:00</time>
      </trkpt>
      <trkpt lat="43.98895" lon="0.233">
        <ele>88</ele>
        <time>2020-09-28T20:14:13+02:00</time>
      </trkpt>
      <trkpt lat="43.98883" lon="0.23309">
        <ele>89</ele>
        <time>2020-09-28T20:14:18+02:00</time>
      </trkpt>
      <trkpt lat="43.98859" lon="0.23309">
        <ele>91</ele>
        <time>2020-09-28T20:14:23+02:00</time>
      </trkpt>
      <trkpt lat="43.98838" lon="0.2332">
        <ele>94</ele>
        <time>2020-09-28T20:14:28+02:00</time>
      </trkpt>
      <trkpt lat="43.98798" lon="0.23337">
        <ele>95</ele>
        <time>2020-09-28T20:14:33+02:00</time>
      </trkpt>
      <trkpt lat="43.98761" lon="0.23332">
        <ele>95</ele>
        <time>2020-09-28T20:14:38+02:00</time>
      </trkpt>
      <trkpt lat="43.98715" lon="0.23322">
        <ele>95</ele>
        <time>2020-09-28T20:14:43+02:00</time>
      </trkpt>
      <trkpt lat="43.98703" lon="0.23327">
        <ele>95</ele>
        <time>2020-09-28T20:14:48+02:00</time>
      </trkpt>
      <trkpt lat="43.98694" lon="0.23358">
        <ele>96</ele>
        <time>2020-09-28T20:14:53+02:00</time>
      </trkpt>
      <trkpt lat="43.98686" lon="0.23375">
        <ele>97</ele>
        <time>2020-09-28T20:14:58+02:00</time>
      </trkpt>
      <trkpt lat="43.98678" lon="0.23383">
        <ele>97</ele>
        <time>2020-09-28T20:15:03+02:00</time>
      </trkpt>
      <trkpt lat="43.98624" lon="0.23392">
        <ele>102</ele>
        <time>2020-09-28T20:15:08+02:00</time>
      </trkpt>
      <trkpt lat="43.9856" lon="0.23402">
        <ele>109</ele>
        <time>2020-09-28T20:15:13+02:00</time>
      </trkpt>
      <trkpt lat="43.98513" lon="0.23446">
        <ele>116</ele>
        <time>2020-09-28T20:15:18+02:00</time>
      </trkpt>
      <trkpt lat="43.9847" lon="0.23447">
        <ele>119</ele>
        <time>2020-09-28T20:15:23+02:00</time>
      </trkpt>
      <trkpt lat="43.98457" lon="0.23441">
        <ele>119</ele>
        <time>2020-09-28T20:15:28+02:00</time>
      </trkpt>
      <trkpt lat="43.98449" lon="0.23489">
        <ele>123</ele>
        <time>2020-09-28T20:15:33+02:00</time>
      </trkpt>
      <trkpt lat="43.98445" lon="0.23528">
        <ele>126</ele>
        <time>2020-09-28T20:15:38+02:00</time>
      </trkpt>
      <trkpt lat="43.98434" lon="0.23572">
        <ele>130</ele>
        <time>2020-09-28T20:15:43+02:00</time>
      </trkpt>
      <trkpt lat="43.98425" lon="0.23609">
        <ele>133</ele>
        <time>2020-09-28T20:15:48+02:00</time>
      </trkpt>
      <trkpt lat="43.98417" lon="0.23621">
        <ele>134</ele>
        <time>2020-09-28T20:15:53+02:00</time>
      </trkpt>
      <trkpt lat="43.98385" lon="0.23644">
        <ele>136</ele>
        <time>2020-09-28T20:15:58+02:00</time>
      </trkpt>
      <trkpt lat="43.98355" lon="0.23672">
        <ele>140</ele>
        <time>2020-09-28T20:16:03+02:00</time>
      </trkpt>
      <trkpt lat="43.98346" lon="0.23695">
        <ele>142</ele>
        <time>2020-09-28T20:16:08+02:00</time>
      </trkpt>
      <trkpt lat="43.98333" lon="0.2377">
        <ele>146</ele>
        <time>2020-09-28T20:16:13+02:00</time>
      </trkpt>
      <trkpt lat="43.98306" lon="0.23869">
        <ele>147</ele>
        <time>2020-09-28T20:16:18+02:00</time>
      </trkpt>
      <trkpt lat="43.98299" lon="0.23883">
        <ele>147</ele>
        <time>2020-09-28T20:16:23+02:00</time>
      </trkpt>
      <trkpt lat="43.98262" lon="0.2404">
        <ele>151</ele>
        <time>2020-09-28T20:16:28+02:00</time>
      </trkpt>
      <trkpt lat="43.98252" lon="0.24071">
        <ele>154</ele>
        <time>2020-09-28T20:16:33+02:00</time>
      </trkpt>
      <trkpt lat="43.98233" lon="0.24163">
        <ele>157</ele>
        <time>2020-09-28T20:16:38+02:00</time>
      </trkpt>
      <trkpt lat="43.98163" lon="0.24266">
        <ele>164</ele>
        <time>2020-09-28T20:16:43+02:00</time>
      </trkpt>
      <trkpt lat="43.98182" lon="0.24289">
        <ele>163</ele>
        <time>2020-09-28T20:16:48+02:00</time>
      </trkpt>
      <trkpt lat="43.98188" lon="0.24332">
        <ele>164</ele>
        <time>2020-09-28T20:16:53+02:00</time>
      </trkpt>
      <trkpt lat="43.98192" lon="0.24381">
        <ele>164</ele>
        <time>2020-09-28T20:16:58+02:00</time>
      </trkpt>
      <trkpt lat="43.98189" lon="0.24423">
        <ele>164</ele>
        <time>2020-09-28T20:17:03+02:00</time>
      </trkpt>
      <trkpt lat="43.98178" lon="0.24501">
        <ele>167</ele>
        <time>2020-09-28T20:17:08+02:00</time>
      </trkpt>
      <trkpt lat="43.98159" lon="0.24659">
        <ele>172</ele>
        <time>2020-09-28T20:17:13+02:00</time>
      </trkpt>
      <trkpt lat="43.98147" lon="0.24748">
        <ele>172</ele>
        <time>2020-09-28T20:17:18+02:00</time>
      </trkpt>
      <trkpt lat="43.98139" lon="0.24776">
        <ele>172</ele>
        <time>2020-09-28T20:17:23+02:00</time>
      </trkpt>
      <trkpt lat="43.98133" lon="0.24777">
        <ele>171</ele>
        <time>2020-09-28T20:17:28+02:00</time>
      </trkpt>
      <trkpt lat="43.98113" lon="0.24907">
        <ele>169</ele>
        <time>2020-09-28T20:17:33+02:00</time>
      </trkpt>
      <trkpt lat="43.98106" lon="0.24945">
        <ele>168</ele>
        <time>2020-09-28T20:17:38+02:00</time>
      </trkpt>
      <trkpt lat="43.98099" lon="0.24946">
        <ele>168</ele>
        <time>2020-09-28T20:17:43+02:00</time>
      </trkpt>
      <trkpt lat="43.98083" lon="0.2494">
        <ele>168</ele>
        <time>2020-09-28T20:17:48+02:00</time>
      </trkpt>
      <trkpt lat="43.98056" lon="0.24942">
        <ele>165</ele>
        <time>2020-09-28T20:17:53+02:00</time>
      </trkpt>
      <trkpt lat="43.98008" lon="0.24929">
        <ele>161</ele>
        <time>2020-09-28T20:17:58+02:00</time>
      </trkpt>
      <trkpt lat="43.97987" lon="0.25034">
        <ele>153</ele>
        <time>2020-09-28T20:18:03+02:00</time>
      </trkpt>
      <trkpt lat="43.97889" lon="0.25312">
        <ele>167</ele>
        <time>2020-09-28T20:18:08+02:00</time>
      </trkpt>
      <trkpt lat="43.97883" lon="0.25308">
        <ele>169</ele>
        <time>2020-09-28T20:18:13+02:00</time>
      </trkpt>
      <trkpt lat="43.97863" lon="0.25281">
        <ele>165</ele>
        <time>2020-09-28T20:18:18+02:00</time>
      </trkpt>
      <trkpt lat="43.97857" lon="0.25265">
        <ele>163</ele>
        <time>2020-09-28T20:18:23+02:00</time>
      </trkpt>
      <trkpt lat="43.97849" lon="0.25231">
        <ele>160</ele>
        <time>2020-09-28T20:18:28+02:00</time>
      </trkpt>
      <trkpt lat="43.9783" lon="0.25226">
        <ele>157</ele>
        <time>2020-09-28T20:18:33+02:00</time>
      </trkpt>
      <trkpt lat="43.97797" lon="0.2523">
        <ele>155</ele>
        <time>2020-09-28T20:18:38+02:00</time>
      </trkpt>
      <trkpt lat="43.97753" lon="0.25241">
        <ele>152</ele>
        <time>2020-09-28T20:18:43+02:00</time>
      </trkpt>
      <trkpt lat="43.9771" lon="0.25244">
        <ele>152</ele>
        <time>2020-09-28T20:18:48+02:00</time>
      </trkpt>
      <trkpt lat="43.97672" lon="0.25232">
        <ele>151</ele>
        <time>2020-09-28T20:18:53+02:00</time>
      </trkpt>
      <trkpt lat="43.97643" lon="0.25328">
        <ele>156</ele>
        <time>2020-09-28T20:18:58+02:00</time>
      </trkpt>
      <trkpt lat="43.97612" lon="0.25419">
        <ele>157</ele>
        <time>2020-09-28T20:19:03+02:00</time>
      </trkpt>
      <trkpt lat="43.97606" lon="0.25444">
        <ele>156</ele>
        <time>2020-09-28T20:19:08+02:00</time>
      </trkpt>
      <trkpt lat="43.97593" lon="0.25596">
        <ele>154</ele>
        <time>2020-09-28T20:19:13+02:00</time>
      </trkpt>
      <trkpt lat="43.97593" lon="0.25616">
        <ele>154</ele>
        <time>2020-09-28T20:19:18+02:00</time>
      </trkpt>
      <trkpt lat="43.97608" lon="0.25712">
        <ele>156</ele>
        <time>2020-09-28T20:19:23+02:00</time>
      </trkpt>
      <trkpt lat="43.97623" lon="0.25786">
        <ele>159</ele>
        <time>2020-09-28T20:19:28+02:00</time>
      </trkpt>
      <trkpt lat="43.97635" lon="0.25831">
        <ele>161</ele>
        <time>2020-09-28T20:19:33+02:00</time>
      </trkpt>
      <trkpt lat="43.97644" lon="0.25893">
        <ele>164</ele>
        <time>2020-09-28T20:19:38+02:00</time>
      </trkpt>
      <trkpt lat="43.97648" lon="0.25928">
        <ele>166</ele>
        <time>2020-09-28T20:19:43+02:00</time>
      </trkpt>
      <trkpt lat="43.97649" lon="0.25953">
        <ele>166</ele>
        <time>2020-09-28T20:19:48+02:00</time>
      </trkpt>
      <trkpt lat="43.97658" lon="0.25964">
        <ele>167</ele>
        <time>2020-09-28T20:19:53+02:00</time>
      </trkpt>
      <trkpt lat="43.97759" lon="0.2602">
        <ele>171</ele>
        <time>2020-09-28T20:19:58+02:00</time>
      </trkpt>
      <trkpt lat="43.97833" lon="0.26129">
        <ele>170</ele>
        <time>2020-09-28T20:20:03+02:00</time>
      </trkpt>
      <trkpt lat="43.97839" lon="0.26247">
        <ele>166</ele>
        <time>2020-09-28T20:20:08+02:00</time>
      </trkpt>
      <trkpt lat="43.97895" lon="0.26314">
        <ele>164</ele>
        <time>2020-09-28T20:20:13+02:00</time>
      </trkpt>
      <trkpt lat="43.97872" lon="0.26361">
        <ele>166</ele>
        <time>2020-09-28T20:20:18+02:00</time>
      </trkpt>
      <trkpt lat="43.97851" lon="0.26413">
        <ele>162</ele>
        <time>2020-09-28T20:20:23+02:00</time>
      </trkpt>
      <trkpt lat="43.97838" lon="0.26519">
        <ele>155</ele>
        <time>2020-09-28T20:20:28+02:00</time>
      </trkpt>
      <trkpt lat="43.97846" lon="0.26525">
        <ele>155</ele>
        <time>2020-09-28T20:20:33+02:00</time>
      </trkpt>
      <trkpt lat="43.97892" lon="0.26488">
        <ele>158</ele>
        <time>2020-09-28T20:20:38+02:00</time>
      </trkpt>
      <trkpt lat="43.97954" lon="0.26458">
        <ele>161</ele>
        <time>2020-09-28T20:20:43+02:00</time>
      </trkpt>
      <trkpt lat="43.97992" lon="0.2644">
        <ele>162</ele>
        <time>2020-09-28T20:20:48+02:00</time>
      </trkpt>
      <trkpt lat="43.98015" lon="0.26423">
        <ele>161</ele>
        <time>2020-09-28T20:20:53+02:00</time>
      </trkpt>
      <trkpt lat="43.98025" lon="0.26419">
        <ele>161</ele>
        <time>2020-09-28T20:20:58+02:00</time>
      </trkpt>
      <trkpt lat="43.98041" lon="0.26422">
        <ele>161</ele>
        <time>2020-09-28T20:21:03+02:00</time>
      </trkpt>
      <trkpt lat="43.98082" lon="0.26442">
        <ele>159</ele>
        <time>2020-09-28T20:21:08+02:00</time>
      </trkpt>
      <trkpt lat="43.98121" lon="0.26466">
        <ele>158</ele>
        <time>2020-09-28T20:21:13+02:00</time>
      </trkpt>
      <trkpt lat="43.98171" lon="0.265">
        <ele>156</ele>
        <time>2020-09-28T20:21:18+02:00</time>
      </trkpt>
      <trkpt lat="43.98179" lon="0.265">
        <ele>156</ele>
        <time>2020-09-28T20:21:23+02:00</time>
      </trkpt>
      <trkpt lat="43.98216" lon="0.26452">
        <ele>154</ele>
        <time>2020-09-28T20:21:28+02:00</time>
      </trkpt>
      <trkpt lat="43.98224" lon="0.26445">
        <ele>154</ele>
        <time>2020-09-28T20:21:33+02:00</time>
      </trkpt>
      <trkpt lat="43.98232" lon="0.26445">
        <ele>154</ele>
        <time>2020-09-28T20:21:38+02:00</time>
      </trkpt>
      <trkpt lat="43.98268" lon="0.2645">
        <ele>153</ele>
        <time>2020-09-28T20:21:43+02:00</time>
      </trkpt>
      <trkpt lat="43.98336" lon="0.26452">
        <ele>153</ele>
        <time>2020-09-28T20:21:48+02:00</time>
      </trkpt>
      <trkpt lat="43.98377" lon="0.26449">
        <ele>151</ele>
        <time>2020-09-28T20:21:53+02:00</time>
      </trkpt>
      <trkpt lat="43.98404" lon="0.26443">
        <ele>149</ele>
        <time>2020-09-28T20:21:58+02:00</time>
      </trkpt>
      <trkpt lat="43.98495" lon="0.26412">
        <ele>143</ele>
        <time>2020-09-28T20:22:03+02:00</time>
      </trkpt>
      <trkpt lat="43.98498" lon="0.26342">
        <ele>141</ele>
        <time>2020-09-28T20:22:08+02:00</time>
      </trkpt>
      <trkpt lat="43.98503" lon="0.26252">
        <ele>139</ele>
        <time>2020-09-28T20:22:13+02:00</time>
      </trkpt>
      <trkpt lat="43.98511" lon="0.26122">
        <ele>137</ele>
        <time>2020-09-28T20:22:18+02:00</time>
      </trkpt>
      <trkpt lat="43.9853" lon="0.26078">
        <ele>136</ele>
        <time>2020-09-28T20:22:23+02:00</time>
      </trkpt>
      <trkpt lat="43.9855" lon="0.26026">
        <ele>135</ele>
        <time>2020-09-28T20:22:28+02:00</time>
      </trkpt>
      <trkpt lat="43.98561" lon="0.26001">
        <ele>135</ele>
        <time>2020-09-28T20:22:33+02:00</time>
      </trkpt>
      <trkpt lat="43.98574" lon="0.25974">
        <ele>134</ele>
        <time>2020-09-28T20:22:38+02:00</time>
      </trkpt>
      <trkpt lat="43.98595" lon="0.25932">
        <ele>133</ele>
        <time>2020-09-28T20:22:43+02:00</time>
      </trkpt>
      <trkpt lat="43.98598" lon="0.25923">
        <ele>133</ele>
        <time>2020-09-28T20:22:48+02:00</time>
      </trkpt>
      <trkpt lat="43.9861" lon="0.2587">
        <ele>132</ele>
        <time>2020-09-28T20:22:53+02:00</time>
      </trkpt>
      <trkpt lat="43.98612" lon="0.25863">
        <ele>134</ele>
        <time>2020-09-28T20:22:58+02:00</time>
      </trkpt>
      <trkpt lat="43.98616" lon="0.25856">
        <ele>135</ele>
        <time>2020-09-28T20:23:03+02:00</time>
      </trkpt>
      <trkpt lat="43.98627" lon="0.25855">
        <ele>135</ele>
        <time>2020-09-28T20:23:08+02:00</time>
      </trkpt>
      <trkpt lat="43.98657" lon="0.25847">
        <ele>135</ele>
        <time>2020-09-28T20:23:13+02:00</time>
      </trkpt>
      <trkpt lat="43.98678" lon="0.25838">
        <ele>136</ele>
        <time>2020-09-28T20:23:18+02:00</time>
      </trkpt>
      <trkpt lat="43.98694" lon="0.25819">
        <ele>137</ele>
        <time>2020-09-28T20:23:23+02:00</time>
      </trkpt>
      <trkpt lat="43.98703" lon="0.258">
        <ele>137</ele>
        <time>2020-09-28T20:23:28+02:00</time>
      </trkpt>
      <trkpt lat="43.9871" lon="0.25751">
        <ele>139</ele>
        <time>2020-09-28T20:23:33+02:00</time>
      </trkpt>
      <trkpt lat="43.9872" lon="0.25677">
        <ele>137</ele>
        <time>2020-09-28T20:23:38+02:00</time>
      </trkpt>
      <trkpt lat="43.98726" lon="0.2562">
        <ele>135</ele>
        <time>2020-09-28T20:23:43+02:00</time>
      </trkpt>
      <trkpt lat="43.98728" lon="0.25609">
        <ele>134</ele>
        <time>2020-09-28T20:23:48+02:00</time>
      </trkpt>
      <trkpt lat="43.98757" lon="0.25509">
        <ele>131</ele>
        <time>2020-09-28T20:23:53+02:00</time>
      </trkpt>
      <trkpt lat="43.98783" lon="0.25418">
        <ele>128</ele>
        <time>2020-09-28T20:23:58+02:00</time>
      </trkpt>
      <trkpt lat="43.98788" lon="0.25383">
        <ele>127</ele>
        <time>2020-09-28T20:24:03+02:00</time>
      </trkpt>
      <trkpt lat="43.98803" lon="0.25317">
        <ele>126</ele>
        <time>2020-09-28T20:24:08+02:00</time>
      </trkpt>
      <trkpt lat="43.98806" lon="0.25312">
        <ele>126</ele>
        <time>2020-09-28T20:24:13+02:00</time>
      </trkpt>
      <trkpt lat="43.98821" lon="0.25262">
        <ele>126</ele>
        <time>2020-09-28T20:24:18+02:00</time>
      </trkpt>
      <trkpt lat="43.98832" lon="0.25223">
        <ele>126</ele>
        <time>2020-09-28T20:24:23+02:00</time>
      </trkpt>
      <trkpt lat="43.98829" lon="0.25196">
        <ele>126</ele>
        <time>2020-09-28T20:24:28+02:00</time>
      </trkpt>
      <trkpt lat="43.98844" lon="0.25152">
        <ele>126</ele>
        <time>2020-09-28T20:24:33+02:00</time>
      </trkpt>
      <trkpt lat="43.9885" lon="0.25105">
        <ele>125</ele>
        <time>2020-09-28T20:24:38+02:00</time>
      </trkpt>
      <trkpt lat="43.98857" lon="0.25048">
        <ele>123</ele>
        <time>2020-09-28T20:24:43+02:00</time>
      </trkpt>
      <trkpt lat="43.98862" lon="0.25001">
        <ele>122</ele>
        <time>2020-09-28T20:24:48+02:00</time>
      </trkpt>
      <trkpt lat="43.98869" lon="0.24963">
        <ele>121</ele>
        <time>2020-09-28T20:24:53+02:00</time>
      </trkpt>
      <trkpt lat="43.98887" lon="0.24934">
        <ele>120</ele>
        <time>2020-09-28T20:24:58+02:00</time>
      </trkpt>
      <trkpt lat="43.98909" lon="0.24881">
        <ele>119</ele>
        <time>2020-09-28T20:25:03+02:00</time>
      </trkpt>
      <trkpt lat="43.98925" lon="0.24846">
        <ele>117</ele>
        <time>2020-09-28T20:25:08+02:00</time>
      </trkpt>
      <trkpt lat="43.98976" lon="0.24868">
        <ele>115</ele>
        <time>2020-09-28T20:25:13+02:00</time>
      </trkpt>
      <trkpt lat="43.99025" lon="0.24891">
        <ele>112</ele>
        <time>2020-09-28T20:25:18+02:00</time>
      </trkpt>
      <trkpt lat="43.99048" lon="0.24893">
        <ele>111</ele>
        <time>2020-09-28T20:25:23+02:00</time>
      </trkpt>
      <trkpt lat="43.9909" lon="0.24878">
        <ele>108</ele>
        <time>2020-09-28T20:25:28+02:00</time>
      </trkpt>
      <trkpt lat="43.99164" lon="0.24852">
        <ele>112</ele>
        <time>2020-09-28T20:25:33+02:00</time>
      </trkpt>
      <trkpt lat="43.99288" lon="0.24888">
        <ele>117</ele>
        <time>2020-09-28T20:25:38+02:00</time>
      </trkpt>
      <trkpt lat="43.99412" lon="0.24926">
        <ele>118</ele>
        <time>2020-09-28T20:25:43+02:00</time>
      </trkpt>
      <trkpt lat="43.99514" lon="0.24922">
        <ele>120</ele>
        <time>2020-09-28T20:25:48+02:00</time>
      </trkpt>
      <trkpt lat="43.99598" lon="0.24917">
        <ele>126</ele>
        <time>2020-09-28T20:25:53+02:00</time>
      </trkpt>
      <trkpt lat="43.99649" lon="0.24913">
        <ele>128</ele>
        <time>2020-09-28T20:25:58+02:00</time>
      </trkpt>
      <trkpt lat="43.99661" lon="0.24917">
        <ele>129</ele>
        <time>2020-09-28T20:26:03+02:00</time>
      </trkpt>
      <trkpt lat="43.99677" lon="0.24927">
        <ele>129</ele>
        <time>2020-09-28T20:26:08+02:00</time>
      </trkpt>
      <trkpt lat="43.99689" lon="0.24942">
        <ele>129</ele>
        <time>2020-09-28T20:26:13+02:00</time>
      </trkpt>
      <trkpt lat="43.99715" lon="0.24971">
        <ele>128</ele>
        <time>2020-09-28T20:26:18+02:00</time>
      </trkpt>
      <trkpt lat="43.9973" lon="0.24979">
        <ele>128</ele>
        <time>2020-09-28T20:26:23+02:00</time>
      </trkpt>
      <trkpt lat="43.99744" lon="0.2497">
        <ele>129</ele>
        <time>2020-09-28T20:26:28+02:00</time>
      </trkpt>
      <trkpt lat="43.99818" lon="0.24774">
        <ele>129</ele>
        <time>2020-09-28T20:26:33+02:00</time>
      </trkpt>
      <trkpt lat="43.99873" lon="0.24608">
        <ele>126</ele>
        <time>2020-09-28T20:26:38+02:00</time>
      </trkpt>
      <trkpt lat="43.9989" lon="0.24541">
        <ele>124</ele>
        <time>2020-09-28T20:26:43+02:00</time>
      </trkpt>
      <trkpt lat="43.99916" lon="0.24453">
        <ele>122</ele>
        <time>2020-09-28T20:26:48+02:00</time>
      </trkpt>
      <trkpt lat="43.99944" lon="0.24387">
        <ele>121</ele>
        <time>2020-09-28T20:26:53+02:00</time>
      </trkpt>
      <trkpt lat="43.99968" lon="0.24318">
        <ele>121</ele>
        <time>2020-09-28T20:26:58+02:00</time>
      </trkpt>
      <trkpt lat="43.99974" lon="0.24292">
        <ele>121</ele>
        <time>2020-09-28T20:27:03+02:00</time>
      </trkpt>
      <trkpt lat="43.99972" lon="0.24267">
        <ele>121</ele>
        <time>2020-09-28T20:27:08+02:00</time>
      </trkpt>
      <trkpt lat="43.99949" lon="0.24243">
        <ele>120</ele>
        <time>2020-09-28T20:27:13+02:00</time>
      </trkpt>
      <trkpt lat="43.999" lon="0.242">
        <ele>117</ele>
        <time>2020-09-28T20:27:18+02:00</time>
      </trkpt>
      <trkpt lat="43.99835" lon="0.24142">
        <ele>112</ele>
        <time>2020-09-28T20:27:23+02:00</time>
      </trkpt>
      <trkpt lat="43.99791" lon="0.24111">
        <ele>113</ele>
        <time>2020-09-28T20:27:28+02:00</time>
      </trkpt>
      <trkpt lat="43.99724" lon="0.24074">
        <ele>110</ele>
        <time>2020-09-28T20:27:33+02:00</time>
      </trkpt>
      <trkpt lat="43.99709" lon="0.2406">
        <ele>109</ele>
        <time>2020-09-28T20:27:38+02:00</time>
      </trkpt>
      <trkpt lat="43.99688" lon="0.2402">
        <ele>105</ele>
        <time>2020-09-28T20:27:43+02:00</time>
      </trkpt>
      <trkpt lat="43.99672" lon="0.23995">
        <ele>103</ele>
        <time>2020-09-28T20:27:48+02:00</time>
      </trkpt>
      <trkpt lat="43.99646" lon="0.23968">
        <ele>101</ele>
        <time>2020-09-28T20:27:53+02:00</time>
      </trkpt>
      <trkpt lat="43.99594" lon="0.2393">
        <ele>95</ele>
        <time>2020-09-28T20:27:58+02:00</time>
      </trkpt>
      <trkpt lat="43.99544" lon="0.23893">
        <ele>90</ele>
        <time>2020-09-28T20:28:03+02:00</time>
      </trkpt>
      <trkpt lat="43.99538" lon="0.23872">
        <ele>89</ele>
        <time>2020-09-28T20:28:08+02:00</time>
      </trkpt>
      <trkpt lat="43.99539" lon="0.23798">
        <ele>88</ele>
        <time>2020-09-28T20:28:13+02:00</time>
      </trkpt>
      <trkpt lat="43.99535" lon="0.2377">
        <ele>87</ele>
        <time>2020-09-28T20:28:18+02:00</time>
      </trkpt>
      <trkpt lat="43.99524" lon="0.23737">
        <ele>87</ele>
        <time>2020-09-28T20:28:23+02:00</time>
      </trkpt>
      <trkpt lat="43.99494" lon="0.23655">
        <ele>87</ele>
        <time>2020-09-28T20:28:28+02:00</time>
      </trkpt>
      <trkpt lat="43.9948" lon="0.23605">
        <ele>87</ele>
        <time>2020-09-28T20:28:33+02:00</time>
      </trkpt>
      <trkpt lat="43.99476" lon="0.23582">
        <ele>87</ele>
        <time>2020-09-28T20:28:38+02:00</time>
      </trkpt>
      <trkpt lat="43.99475" lon="0.23548">
        <ele>87</ele>
        <time>2020-09-28T20:28:43+02:00</time>
      </trkpt>
      <trkpt lat="43.99476" lon="0.23495">
        <ele>87</ele>
        <time>2020-09-28T20:28:48+02:00</time>
      </trkpt>
      <trkpt lat="43.99466" lon="0.23466">
        <ele>87</ele>
        <time>2020-09-28T20:28:53+02:00</time>
      </trkpt>
      <trkpt lat="43.99448" lon="0.23447">
        <ele>89</ele>
        <time>2020-09-28T20:28:58+02:00</time>
      </trkpt>
      <trkpt lat="43.99424" lon="0.23433">
        <ele>90</ele>
        <time>2020-09-28T20:29:03+02:00</time>
      </trkpt>
      <trkpt lat="43.99371" lon="0.23424">
        <ele>90</ele>
        <time>2020-09-28T20:29:08+02:00</time>
      </trkpt>
      <trkpt lat="43.99311" lon="0.23417">
        <ele>90</ele>
        <time>2020-09-28T20:29:13+02:00</time>
      </trkpt>
      <trkpt lat="43.99237" lon="0.23392">
        <ele>89</ele>
        <time>2020-09-28T20:29:18+02:00</time>
      </trkpt>
      <trkpt lat="43.99231" lon="0.23372">
        <ele>88</ele>
        <time>2020-09-28T20:29:23+02:00</time>
      </trkpt>
      <trkpt lat="43.99251" lon="0.23197">
        <ele>79</ele>
        <time>2020-09-28T20:29:28+02:00</time>
      </trkpt>
      <trkpt lat="43.99242" lon="0.23182">
        <ele>78</ele>
        <time>2020-09-28T20:29:33+02:00</time>
      </trkpt>
      <trkpt lat="43.99245" lon="0.23106">
        <ele>76</ele>
        <time>2020-09-28T20:29:38+02:00</time>
      </trkpt>
      <trkpt lat="43.99253" lon="0.23052">
        <ele>75</ele>
        <time>2020-09-28T20:29:43+02:00</time>
      </trkpt>
      <trkpt lat="43.99264" lon="0.23044">
        <ele>75</ele>
        <time>2020-09-28T20:29:48+02:00</time>
      </trkpt>
      <trkpt lat="43.9927" lon="0.23033">
        <ele>75</ele>
        <time>2020-09-28T20:29:53+02:00</time>
      </trkpt>
      <trkpt lat="43.99275" lon="0.23018">
        <ele>75</ele>
        <time>2020-09-28T20:29:58+02:00</time>
      </trkpt>
      <trkpt lat="43.99277" lon="0.23001">
        <ele>75</ele>
        <time>2020-09-28T20:30:03+02:00</time>
      </trkpt>
    </trkseg>
  </trk>
</gpx>